Alexandria, Ohio
Current Conditions -  °F | °C
As of 3:54 PM on Thursday 18 Dec 2014 (Local Time) from KVTA Reporting Station
Overcast Overcast  
Wind Chill: -5°   Ceiling: 1800
Heat Index: -2°   Visibility: 10mi
Dew Point: -6°   Wind: 5mph
Humidity: 72%   Direction: 290°WNW
Pressure: 30.19"   Gusts: NA
Location:  40.09°N, 82.61°W
Report Text: KVTA 182054Z AUTO 29004KT 10SM OVC018 M02/M06 A3019 RMK AO2 SLP234 T10171061 56007
Loading
Personal Weather Stations






























Interactive Weather Map New forecast layout! Learn more

10-Day Weather Forecast

Advertisements
Track Severe Weather on mobile